sensor_id;sensor_type;location;lat;lon;timestamp;P1;durP1;ratioP1;P2;durP2;ratioP2
19030;SDS011;9648;51.130;13.978;2023-07-29T00:01:51;2.10;;;1.57;;
19030;SDS011;9648;51.130;13.978;2023-07-29T00:04:19;3.20;;;1.70;;
19030;SDS011;9648;51.130;13.978;2023-07-29T00:06:46;2.03;;;1.63;;
19030;SDS011;9648;51.130;13.978;2023-07-29T00:09:14;2.15;;;1.60;;
19030;SDS011;9648;51.130;13.978;2023-07-29T00:11:41;2.40;;;1.60;;
19030;SDS011;9648;51.130;13.978;2023-07-29T00:14:08;2.97;;;1.60;;
19030;SDS011;9648;51.130;13.978;2023-07-29T00:16:35;4.35;;;1.70;;
19030;SDS011;9648;51.130;13.978;2023-07-29T00:19:02;2.10;;;1.70;;
19030;SDS011;9648;51.130;13.978;2023-07-29T00:21:29;2.00;;;1.70;;
19030;SDS011;9648;51.130;13.978;2023-07-29T00:23:58;2.60;;;1.70;;
19030;SDS011;9648;51.130;13.978;2023-07-29T00:26:27;2.90;;;1.50;;
19030;SDS011;9648;51.130;13.978;2023-07-29T00:28:54;2.10;;;1.90;;
19030;SDS011;9648;51.130;13.978;2023-07-29T00:31:21;2.40;;;1.90;;
19030;SDS011;9648;51.130;13.978;2023-07-29T00:33:48;1.80;;;1.60;;
19030;SDS011;9648;51.130;13.978;2023-07-29T00:36:15;2.40;;;1.80;;
19030;SDS011;9648;51.130;13.978;2023-07-29T00:38:42;2.03;;;1.60;;
19030;SDS011;9648;51.130;13.978;2023-07-29T00:41:08;2.93;;;1.80;;
19030;SDS011;9648;51.130;13.978;2023-07-29T00:43:40;2.28;;;1.60;;
19030;SDS011;9648;51.130;13.978;2023-07-29T00:46:07;2.50;;;1.80;;
19030;SDS011;9648;51.130;13.978;2023-07-29T00:48:35;2.03;;;1.60;;
19030;SDS011;9648;51.130;13.978;2023-07-29T00:51:02;1.77;;;1.60;;
19030;SDS011;9648;51.130;13.978;2023-07-29T00:53:29;2.57;;;1.57;;
19030;SDS011;9648;51.130;13.978;2023-07-29T00:55:56;2.00;;;1.50;;
19030;SDS011;9648;51.130;13.978;2023-07-29T00:58:23;1.50;;;1.40;;
19030;SDS011;9648;51.130;13.978;2023-07-29T01:00:51;1.80;;;1.50;;
19030;SDS011;9648;51.130;13.978;2023-07-29T01:03:19;1.55;;;1.40;;
19030;SDS011;9648;51.130;13.978;2023-07-29T01:05:49;2.63;;;1.40;;
19030;SDS011;9648;51.130;13.978;2023-07-29T01:08:33;1.50;;;1.40;;
19030;SDS011;9648;51.130;13.978;2023-07-29T01:11:08;1.65;;;1.55;;
19030;SDS011;9648;51.130;13.978;2023-07-29T01:13:44;1.73;;;1.50;;
19030;SDS011;9648;51.130;13.978;2023-07-29T01:16:19;1.50;;;1.40;;
19030;SDS011;9648;51.130;13.978;2023-07-29T01:18:49;1.48;;;1.38;;
19030;SDS011;9648;51.130;13.978;2023-07-29T01:21:19;1.90;;;1.45;;
19030;SDS011;9648;51.130;13.978;2023-07-29T01:23:50;2.53;;;1.80;;
19030;SDS011;9648;51.130;13.978;2023-07-29T01:26:24;2.00;;;1.50;;
19030;SDS011;9648;51.130;13.978;2023-07-29T01:28:53;2.20;;;1.80;;
19030;SDS011;9648;51.130;13.978;2023-07-29T01:31:23;3.10;;;2.00;;
19030;SDS011;9648;51.130;13.978;2023-07-29T01:33:58;2.70;;;1.80;;
19030;SDS011;9648;51.130;13.978;2023-07-29T01:36:28;2.00;;;1.80;;
19030;SDS011;9648;51.130;13.978;2023-07-29T01:39:00;2.40;;;1.63;;
19030;SDS011;9648;51.130;13.978;2023-07-29T01:41:29;2.70;;;1.60;;
19030;SDS011;9648;51.130;13.978;2023-07-29T01:43:56;2.60;;;1.50;;
19030;SDS011;9648;51.130;13.978;2023-07-29T01:46:23;2.60;;;2.10;;
19030;SDS011;9648;51.130;13.978;2023-07-29T01:48:50;2.83;;;1.90;;
19030;SDS011;9648;51.130;13.978;2023-07-29T01:51:16;1.90;;;1.55;;
19030;SDS011;9648;51.130;13.978;2023-07-29T01:53:43;2.40;;;1.60;;
19030;SDS011;9648;51.130;13.978;2023-07-29T01:56:11;1.83;;;1.60;;
19030;SDS011;9648;51.130;13.978;2023-07-29T01:58:38;2.17;;;1.70;;
19030;SDS011;9648;51.130;13.978;2023-07-29T02:01:05;2.05;;;1.50;;
19030;SDS011;9648;51.130;13.978;2023-07-29T02:03:32;1.83;;;1.63;;
19030;SDS011;9648;51.130;13.978;2023-07-29T02:05:59;1.90;;;1.60;;
19030;SDS011;9648;51.130;13.978;2023-07-29T02:08:25;2.17;;;1.60;;
19030;SDS011;9648;51.130;13.978;2023-07-29T02:10:52;1.90;;;1.70;;
19030;SDS011;9648;51.130;13.978;2023-07-29T02:13:20;2.80;;;1.80;;
19030;SDS011;9648;51.130;13.978;2023-07-29T02:15:47;3.87;;;1.97;;
19030;SDS011;9648;51.130;13.978;2023-07-29T02:18:14;4.28;;;2.13;;
19030;SDS011;9648;51.130;13.978;2023-07-29T02:20:40;2.07;;;1.80;;
19030;SDS011;9648;51.130;13.978;2023-07-29T02:23:14;2.15;;;1.85;;
19030;SDS011;9648;51.130;13.978;2023-07-29T02:25:41;3.70;;;1.85;;
19030;SDS011;9648;51.130;13.978;2023-07-29T02:28:07;2.78;;;2.20;;
19030;SDS011;9648;51.130;13.978;2023-07-29T02:30:35;2.47;;;2.10;;
19030;SDS011;9648;51.130;13.978;2023-07-29T02:33:03;2.50;;;2.05;;
19030;SDS011;9648;51.130;13.978;2023-07-29T02:35:29;2.23;;;2.03;;
19030;SDS011;9648;51.130;13.978;2023-07-29T02:37:56;3.03;;;2.25;;
19030;SDS011;9648;51.130;13.978;2023-07-29T02:40:25;2.53;;;1.98;;
19030;SDS011;9648;51.130;13.978;2023-07-29T02:42:53;2.30;;;1.95;;
19030;SDS011;9648;51.130;13.978;2023-07-29T02:45:20;2.90;;;2.00;;
19030;SDS011;9648;51.130;13.978;2023-07-29T02:47:48;2.53;;;2.00;;
19030;SDS011;9648;51.130;13.978;2023-07-29T02:50:15;2.60;;;2.30;;
19030;SDS011;9648;51.130;13.978;2023-07-29T02:52:42;3.35;;;2.05;;
19030;SDS011;9648;51.130;13.978;2023-07-29T02:55:09;2.75;;;2.10;;
19030;SDS011;9648;51.130;13.978;2023-07-29T02:57:35;3.10;;;2.17;;
19030;SDS011;9648;51.130;13.978;2023-07-29T03:00:02;2.50;;;2.30;;
19030;SDS011;9648;51.130;13.978;2023-07-29T03:02:32;2.50;;;2.20;;
19030;SDS011;9648;51.130;13.978;2023-07-29T03:05:00;2.05;;;1.85;;
19030;SDS011;9648;51.130;13.978;2023-07-29T03:07:27;3.00;;;2.05;;
19030;SDS011;9648;51.130;13.978;2023-07-29T03:09:54;2.42;;;1.90;;
19030;SDS011;9648;51.130;13.978;2023-07-29T03:12:20;3.90;;;2.22;;
19030;SDS011;9648;51.130;13.978;2023-07-29T03:14:47;2.47;;;2.00;;
19030;SDS011;9648;51.130;13.978;2023-07-29T03:17:14;2.45;;;2.10;;
19030;SDS011;9648;51.130;13.978;2023-07-29T03:19:41;2.50;;;1.97;;
19030;SDS011;9648;51.130;13.978;2023-07-29T03:22:09;2.13;;;1.90;;
19030;SDS011;9648;51.130;13.978;2023-07-29T03:24:36;3.63;;;2.45;;
19030;SDS011;9648;51.130;13.978;2023-07-29T03:27:03;4.03;;;2.58;;
19030;SDS011;9648;51.130;13.978;2023-07-29T03:29:30;3.78;;;2.28;;
19030;SDS011;9648;51.130;13.978;2023-07-29T03:31:57;2.22;;;1.95;;
19030;SDS011;9648;51.130;13.978;2023-07-29T03:34:24;2.33;;;1.97;;
19030;SDS011;9648;51.130;13.978;2023-07-29T03:36:51;2.60;;;1.80;;
19030;SDS011;9648;51.130;13.978;2023-07-29T03:39:19;2.17;;;1.80;;
19030;SDS011;9648;51.130;13.978;2023-07-29T03:41:46;3.05;;;1.98;;
19030;SDS011;9648;51.130;13.978;2023-07-29T03:44:12;2.90;;;2.13;;
19030;SDS011;9648;51.130;13.978;2023-07-29T03:46:39;2.53;;;2.20;;
19030;SDS011;9648;51.130;13.978;2023-07-29T03:49:06;3.50;;;2.10;;
19030;SDS011;9648;51.130;13.978;2023-07-29T03:51:32;2.42;;;2.03;;
19030;SDS011;9648;51.130;13.978;2023-07-29T03:53:59;3.38;;;2.13;;
19030;SDS011;9648;51.130;13.978;2023-07-29T03:56:27;2.10;;;1.90;;
19030;SDS011;9648;51.130;13.978;2023-07-29T03:59:00;1.70;;;1.60;;
19030;SDS011;9648;51.130;13.978;2023-07-29T04:01:28;2.00;;;1.80;;
19030;SDS011;9648;51.130;13.978;2023-07-29T04:03:55;2.80;;;1.90;;
19030;SDS011;9648;51.130;13.978;2023-07-29T04:06:22;2.20;;;2.00;;
19030;SDS011;9648;51.130;13.978;2023-07-29T04:08:49;2.15;;;1.95;;
19030;SDS011;9648;51.130;13.978;2023-07-29T04:11:16;2.08;;;1.88;;
19030;SDS011;9648;51.130;13.978;2023-07-29T04:13:44;1.60;;;1.50;;
19030;SDS011;9648;51.130;13.978;2023-07-29T04:16:10;1.73;;;1.42;;
19030;SDS011;9648;51.130;13.978;2023-07-29T04:18:38;2.33;;;1.50;;
19030;SDS011;9648;51.130;13.978;2023-07-29T04:21:05;1.58;;;1.40;;
19030;SDS011;9648;51.130;13.978;2023-07-29T04:23:31;2.95;;;1.50;;
19030;SDS011;9648;51.130;13.978;2023-07-29T04:25:58;2.05;;;1.58;;
19030;SDS011;9648;51.130;13.978;2023-07-29T04:28:25;2.87;;;1.60;;
19030;SDS011;9648;51.130;13.978;2023-07-29T04:30:53;3.35;;;1.50;;
19030;SDS011;9648;51.130;13.978;2023-07-29T04:33:20;1.90;;;1.58;;
19030;SDS011;9648;51.130;13.978;2023-07-29T04:35:47;1.90;;;1.33;;
19030;SDS011;9648;51.130;13.978;2023-07-29T04:38:13;1.40;;;1.30;;
19030;SDS011;9648;51.130;13.978;2023-07-29T04:40:40;1.90;;;1.50;;
19030;SDS011;9648;51.130;13.978;2023-07-29T04:43:07;2.40;;;1.30;;
19030;SDS011;9648;51.130;13.978;2023-07-29T04:45:33;2.30;;;1.40;;
19030;SDS011;9648;51.130;13.978;2023-07-29T04:48:02;1.30;;;1.20;;
19030;SDS011;9648;51.130;13.978;2023-07-29T04:50:29;2.13;;;1.45;;
19030;SDS011;9648;51.130;13.978;2023-07-29T04:52:56;2.60;;;1.65;;
19030;SDS011;9648;51.130;13.978;2023-07-29T04:55:23;1.97;;;1.40;;
19030;SDS011;9648;51.130;13.978;2023-07-29T04:57:49;3.78;;;1.50;;
19030;SDS011;9648;51.130;13.978;2023-07-29T05:00:16;1.30;;;1.20;;
19030;SDS011;9648;51.130;13.978;2023-07-29T05:02:43;1.50;;;1.35;;
19030;SDS011;9648;51.130;13.978;2023-07-29T05:05:12;1.63;;;1.30;;
19030;SDS011;9648;51.130;13.978;2023-07-29T05:07:39;1.58;;;1.27;;
19030;SDS011;9648;51.130;13.978;2023-07-29T05:10:06;2.05;;;1.10;;
19030;SDS011;9648;51.130;13.978;2023-07-29T05:12:34;1.90;;;1.00;;
19030;SDS011;9648;51.130;13.978;2023-07-29T05:15:00;1.23;;;1.10;;
19030;SDS011;9648;51.130;13.978;2023-07-29T05:17:27;1.60;;;1.30;;
19030;SDS011;9648;51.130;13.978;2023-07-29T05:19:54;1.75;;;1.10;;
19030;SDS011;9648;51.130;13.978;2023-07-29T05:22:22;1.80;;;1.00;;
19030;SDS011;9648;51.130;13.978;2023-07-29T05:24:50;1.70;;;1.10;;
19030;SDS011;9648;51.130;13.978;2023-07-29T05:27:16;1.30;;;0.98;;
19030;SDS011;9648;51.130;13.978;2023-07-29T05:29:43;1.00;;;0.90;;
19030;SDS011;9648;51.130;13.978;2023-07-29T05:32:10;1.10;;;1.00;;
19030;SDS011;9648;51.130;13.978;2023-07-29T05:34:37;1.60;;;1.00;;
19030;SDS011;9648;51.130;13.978;2023-07-29T05:37:04;1.20;;;1.10;;
19030;SDS011;9648;51.130;13.978;2023-07-29T05:39:35;2.15;;;0.90;;
19030;SDS011;9648;51.130;13.978;2023-07-29T05:42:02;1.02;;;0.93;;
19030;SDS011;9648;51.130;13.978;2023-07-29T05:44:30;1.10;;;1.00;;
19030;SDS011;9648;51.130;13.978;2023-07-29T05:46:56;1.98;;;1.10;;
19030;SDS011;9648;51.130;13.978;2023-07-29T05:49:23;2.80;;;1.20;;
19030;SDS011;9648;51.130;13.978;2023-07-29T05:51:50;1.50;;;1.30;;
19030;SDS011;9648;51.130;13.978;2023-07-29T05:54:18;1.58;;;1.10;;
19030;SDS011;9648;51.130;13.978;2023-07-29T05:56:46;1.67;;;1.00;;
19030;SDS011;9648;51.130;13.978;2023-07-29T05:59:13;2.37;;;1.00;;
19030;SDS011;9648;51.130;13.978;2023-07-29T06:01:40;2.67;;;1.00;;
19030;SDS011;9648;51.130;13.978;2023-07-29T06:04:07;0.93;;;0.77;;
19030;SDS011;9648;51.130;13.978;2023-07-29T06:06:34;1.55;;;0.80;;
19030;SDS011;9648;51.130;13.978;2023-07-29T06:09:00;0.95;;;0.85;;
19030;SDS011;9648;51.130;13.978;2023-07-29T06:11:27;1.02;;;0.90;;
19030;SDS011;9648;51.130;13.978;2023-07-29T06:13:55;1.15;;;0.80;;
19030;SDS011;9648;51.130;13.978;2023-07-29T06:16:22;1.30;;;0.80;;
19030;SDS011;9648;51.130;13.978;2023-07-29T06:18:49;1.52;;;0.68;;
19030;SDS011;9648;51.130;13.978;2023-07-29T06:21:17;1.63;;;0.82;;
19030;SDS011;9648;51.130;13.978;2023-07-29T06:23:48;1.10;;;0.90;;
19030;SDS011;9648;51.130;13.978;2023-07-29T06:26:15;1.33;;;0.80;;
19030;SDS011;9648;51.130;13.978;2023-07-29T06:28:41;1.60;;;0.80;;
19030;SDS011;9648;51.130;13.978;2023-07-29T06:31:10;1.33;;;1.00;;
19030;SDS011;9648;51.130;13.978;2023-07-29T06:33:37;1.07;;;0.90;;
19030;SDS011;9648;51.130;13.978;2023-07-29T06:36:04;1.10;;;1.00;;
19030;SDS011;9648;51.130;13.978;2023-07-29T06:38:31;1.30;;;0.90;;
19030;SDS011;9648;51.130;13.978;2023-07-29T06:40:58;1.07;;;0.93;;
19030;SDS011;9648;51.130;13.978;2023-07-29T06:43:25;1.08;;;0.98;;
19030;SDS011;9648;51.130;13.978;2023-07-29T06:45:51;1.15;;;0.80;;
19030;SDS011;9648;51.130;13.978;2023-07-29T06:48:20;1.55;;;0.80;;
19030;SDS011;9648;51.130;13.978;2023-07-29T06:50:47;1.90;;;0.85;;
19030;SDS011;9648;51.130;13.978;2023-07-29T06:53:15;1.00;;;0.82;;
19030;SDS011;9648;51.130;13.978;2023-07-29T06:55:41;1.30;;;0.77;;
19030;SDS011;9648;51.130;13.978;2023-07-29T06:58:08;2.15;;;0.90;;
19030;SDS011;9648;51.130;13.978;2023-07-29T07:00:35;1.08;;;0.80;;
19030;SDS011;9648;51.130;13.978;2023-07-29T07:03:02;0.80;;;0.80;;
19030;SDS011;9648;51.130;13.978;2023-07-29T07:05:30;2.83;;;1.00;;
19030;SDS011;9648;51.130;13.978;2023-07-29T07:07:57;2.03;;;1.02;;
19030;SDS011;9648;51.130;13.978;2023-07-29T07:10:24;1.30;;;0.93;;
19030;SDS011;9648;51.130;13.978;2023-07-29T07:12:50;1.17;;;0.80;;
19030;SDS011;9648;51.130;13.978;2023-07-29T07:15:17;0.93;;;0.80;;
19030;SDS011;9648;51.130;13.978;2023-07-29T07:17:44;2.80;;;0.90;;
19030;SDS011;9648;51.130;13.978;2023-07-29T07:20:11;1.17;;;0.90;;
19030;SDS011;9648;51.130;13.978;2023-07-29T07:22:39;1.50;;;1.00;;
19030;SDS011;9648;51.130;13.978;2023-07-29T07:25:06;2.23;;;0.90;;
19030;SDS011;9648;51.130;13.978;2023-07-29T07:27:33;0.97;;;0.80;;
19030;SDS011;9648;51.130;13.978;2023-07-29T07:30:00;1.50;;;0.90;;
19030;SDS011;9648;51.130;13.978;2023-07-29T07:32:27;1.03;;;0.87;;
19030;SDS011;9648;51.130;13.978;2023-07-29T07:34:54;2.10;;;1.00;;
19030;SDS011;9648;51.130;13.978;2023-07-29T07:37:21;1.90;;;0.90;;
19030;SDS011;9648;51.130;13.978;2023-07-29T07:39:49;1.05;;;0.90;;
19030;SDS011;9648;51.130;13.978;2023-07-29T07:42:16;1.17;;;0.80;;
19030;SDS011;9648;51.130;13.978;2023-07-29T07:44:43;1.35;;;0.80;;
19030;SDS011;9648;51.130;13.978;2023-07-29T07:47:09;3.70;;;1.10;;
19030;SDS011;9648;51.130;13.978;2023-07-29T07:49:36;1.63;;;0.90;;
19030;SDS011;9648;51.130;13.978;2023-07-29T07:52:03;1.33;;;0.95;;
19030;SDS011;9648;51.130;13.978;2023-07-29T07:54:30;1.45;;;0.98;;
19030;SDS011;9648;51.130;13.978;2023-07-29T07:56:58;1.60;;;1.05;;
19030;SDS011;9648;51.130;13.978;2023-07-29T07:59:25;1.00;;;0.90;;
19030;SDS011;9648;51.130;13.978;2023-07-29T08:01:52;2.28;;;0.90;;
19030;SDS011;9648;51.130;13.978;2023-07-29T08:04:18;2.00;;;0.80;;
19030;SDS011;9648;51.130;13.978;2023-07-29T08:06:45;0.88;;;0.82;;
19030;SDS011;9648;51.130;13.978;2023-07-29T08:09:12;0.98;;;0.80;;
19030;SDS011;9648;51.130;13.978;2023-07-29T08:11:40;1.70;;;0.80;;
19030;SDS011;9648;51.130;13.978;2023-07-29T08:14:08;1.20;;;1.00;;
19030;SDS011;9648;51.130;13.978;2023-07-29T08:16:34;1.00;;;0.80;;
19030;SDS011;9648;51.130;13.978;2023-07-29T08:19:01;0.80;;;0.77;;
19030;SDS011;9648;51.130;13.978;2023-07-29T08:21:28;1.25;;;0.95;;
19030;SDS011;9648;51.130;13.978;2023-07-29T08:23:55;0.95;;;0.80;;
19030;SDS011;9648;51.130;13.978;2023-07-29T08:26:21;1.50;;;1.10;;
19030;SDS011;9648;51.130;13.978;2023-07-29T08:28:48;1.27;;;0.90;;
19030;SDS011;9648;51.130;13.978;2023-07-29T08:31:17;1.10;;;0.90;;
19030;SDS011;9648;51.130;13.978;2023-07-29T08:33:43;1.00;;;0.90;;
19030;SDS011;9648;51.130;13.978;2023-07-29T08:36:10;1.40;;;1.00;;
19030;SDS011;9648;51.130;13.978;2023-07-29T08:38:37;1.90;;;0.90;;
19030;SDS011;9648;51.130;13.978;2023-07-29T08:41:06;0.70;;;0.70;;
19030;SDS011;9648;51.130;13.978;2023-07-29T08:43:39;1.15;;;0.80;;
19030;SDS011;9648;51.130;13.978;2023-07-29T08:46:11;1.10;;;0.90;;
19030;SDS011;9648;51.130;13.978;2023-07-29T08:48:40;0.88;;;0.80;;
19030;SDS011;9648;51.130;13.978;2023-07-29T08:51:08;0.80;;;0.70;;
19030;SDS011;9648;51.130;13.978;2023-07-29T08:53:36;0.98;;;0.77;;
19030;SDS011;9648;51.130;13.978;2023-07-29T08:56:03;1.00;;;0.80;;
19030;SDS011;9648;51.130;13.978;2023-07-29T08:58:31;1.20;;;0.90;;
19030;SDS011;9648;51.130;13.978;2023-07-29T09:00:58;1.40;;;0.93;;
19030;SDS011;9648;51.130;13.978;2023-07-29T09:03:26;1.20;;;0.73;;
19030;SDS011;9648;51.130;13.978;2023-07-29T09:05:54;1.10;;;0.80;;
19030;SDS011;9648;51.130;13.978;2023-07-29T09:08:21;1.90;;;0.70;;
19030;SDS011;9648;51.130;13.978;2023-07-29T09:10:50;0.90;;;0.70;;
19030;SDS011;9648;51.130;13.978;2023-07-29T09:13:16;0.80;;;0.77;;
19030;SDS011;9648;51.130;13.978;2023-07-29T09:15:43;1.00;;;0.60;;
19030;SDS011;9648;51.130;13.978;2023-07-29T09:18:12;1.60;;;0.70;;
19030;SDS011;9648;51.130;13.978;2023-07-29T09:20:41;0.60;;;0.60;;
19030;SDS011;9648;51.130;13.978;2023-07-29T09:23:10;0.80;;;0.60;;
19030;SDS011;9648;51.130;13.978;2023-07-29T09:25:37;0.57;;;0.52;;
19030;SDS011;9648;51.130;13.978;2023-07-29T09:28:07;1.15;;;0.57;;
19030;SDS011;9648;51.130;13.978;2023-07-29T09:30:36;0.50;;;0.50;;
19030;SDS011;9648;51.130;13.978;2023-07-29T09:33:03;0.40;;;0.40;;
19030;SDS011;9648;51.130;13.978;2023-07-29T09:35:30;0.75;;;0.50;;
19030;SDS011;9648;51.130;13.978;2023-07-29T09:37:59;0.60;;;0.50;;
19030;SDS011;9648;51.130;13.978;2023-07-29T09:40:27;1.67;;;0.60;;
19030;SDS011;9648;51.130;13.978;2023-07-29T09:43:00;0.95;;;0.70;;
19030;SDS011;9648;51.130;13.978;2023-07-29T09:45:27;1.33;;;0.70;;
19030;SDS011;9648;51.130;13.978;2023-07-29T09:47:54;2.47;;;0.70;;
19030;SDS011;9648;51.130;13.978;2023-07-29T09:50:23;0.70;;;0.70;;
19030;SDS011;9648;51.130;13.978;2023-07-29T09:52:50;0.65;;;0.50;;
19030;SDS011;9648;51.130;13.978;2023-07-29T09:55:18;0.75;;;0.63;;
19030;SDS011;9648;51.130;13.978;2023-07-29T09:57:48;0.93;;;0.50;;
19030;SDS011;9648;51.130;13.978;2023-07-29T10:00:19;1.17;;;0.80;;
19030;SDS011;9648;51.130;13.978;2023-07-29T10:02:46;2.03;;;0.77;;
19030;SDS011;9648;51.130;13.978;2023-07-29T10:05:14;0.70;;;0.60;;
19030;SDS011;9648;51.130;13.978;2023-07-29T10:07:41;1.00;;;0.65;;
19030;SDS011;9648;51.130;13.978;2023-07-29T10:10:08;1.00;;;0.70;;
19030;SDS011;9648;51.130;13.978;2023-07-29T10:12:35;1.88;;;0.70;;
19030;SDS011;9648;51.130;13.978;2023-07-29T10:15:04;1.30;;;0.70;;
19030;SDS011;9648;51.130;13.978;2023-07-29T10:17:33;1.10;;;0.80;;
19030;SDS011;9648;51.130;13.978;2023-07-29T10:20:03;1.90;;;0.70;;
19030;SDS011;9648;51.130;13.978;2023-07-29T10:22:33;1.10;;;0.80;;
19030;SDS011;9648;51.130;13.978;2023-07-29T10:25:03;1.00;;;0.80;;
19030;SDS011;9648;51.130;13.978;2023-07-29T10:27:33;1.02;;;0.88;;
19030;SDS011;9648;51.130;13.978;2023-07-29T10:30:09;0.82;;;0.80;;
19030;SDS011;9648;51.130;13.978;2023-07-29T10:32:38;1.43;;;0.73;;
19030;SDS011;9648;51.130;13.978;2023-07-29T10:35:07;1.30;;;0.90;;
19030;SDS011;9648;51.130;13.978;2023-07-29T10:37:34;1.00;;;0.80;;
19030;SDS011;9648;51.130;13.978;2023-07-29T10:40:03;1.10;;;0.88;;
19030;SDS011;9648;51.130;13.978;2023-07-29T10:42:33;2.83;;;0.80;;
19030;SDS011;9648;51.130;13.978;2023-07-29T10:45:00;2.10;;;0.90;;
19030;SDS011;9648;51.130;13.978;2023-07-29T10:47:44;1.20;;;0.75;;
19030;SDS011;9648;51.130;13.978;2023-07-29T10:50:16;1.25;;;0.90;;
19030;SDS011;9648;51.130;13.978;2023-07-29T10:52:44;2.20;;;0.87;;
19030;SDS011;9648;51.130;13.978;2023-07-29T10:55:25;2.08;;;1.10;;
19030;SDS011;9648;51.130;13.978;2023-07-29T10:58:04;1.33;;;1.00;;
19030;SDS011;9648;51.130;13.978;2023-07-29T11:00:44;1.70;;;0.90;;
19030;SDS011;9648;51.130;13.978;2023-07-29T11:03:13;1.20;;;0.90;;
19030;SDS011;9648;51.130;13.978;2023-07-29T11:05:42;1.03;;;0.70;;
19030;SDS011;9648;51.130;13.978;2023-07-29T11:08:20;0.85;;;0.73;;
19030;SDS011;9648;51.130;13.978;2023-07-29T11:11:05;2.10;;;0.77;;
19030;SDS011;9648;51.130;13.978;2023-07-29T11:13:34;0.73;;;0.68;;
19030;SDS011;9648;51.130;13.978;2023-07-29T11:16:01;1.10;;;0.65;;
19030;SDS011;9648;51.130;13.978;2023-07-29T11:18:31;4.00;;;0.80;;
19030;SDS011;9648;51.130;13.978;2023-07-29T11:20:59;2.07;;;0.70;;
19030;SDS011;9648;51.130;13.978;2023-07-29T11:23:27;0.80;;;0.70;;
19030;SDS011;9648;51.130;13.978;2023-07-29T11:26:01;1.20;;;0.60;;
19030;SDS011;9648;51.130;13.978;2023-07-29T11:28:29;1.90;;;0.80;;
19030;SDS011;9648;51.130;13.978;2023-07-29T11:30:56;1.20;;;0.90;;
19030;SDS011;9648;51.130;13.978;2023-07-29T11:33:24;1.00;;;0.68;;
19030;SDS011;9648;51.130;13.978;2023-07-29T11:35:54;2.00;;;0.80;;
19030;SDS011;9648;51.130;13.978;2023-07-29T11:38:21;2.60;;;0.80;;
19030;SDS011;9648;51.130;13.978;2023-07-29T11:40:55;1.10;;;0.80;;
19030;SDS011;9648;51.130;13.978;2023-07-29T11:43:24;1.30;;;0.80;;
19030;SDS011;9648;51.130;13.978;2023-07-29T11:45:51;0.85;;;0.70;;
19030;SDS011;9648;51.130;13.978;2023-07-29T11:48:18;3.80;;;0.80;;
19030;SDS011;9648;51.130;13.978;2023-07-29T11:50:54;1.75;;;0.90;;
19030;SDS011;9648;51.130;13.978;2023-07-29T11:53:21;1.88;;;1.00;;
19030;SDS011;9648;51.130;13.978;2023-07-29T11:55:49;1.52;;;0.85;;
19030;SDS011;9648;51.130;13.978;2023-07-29T11:58:18;3.40;;;1.00;;
19030;SDS011;9648;51.130;13.978;2023-07-29T12:00:44;2.15;;;0.93;;
19030;SDS011;9648;51.130;13.978;2023-07-29T12:03:12;0.80;;;0.70;;
19030;SDS011;9648;51.130;13.978;2023-07-29T12:05:41;1.80;;;0.80;;
19030;SDS011;9648;51.130;13.978;2023-07-29T12:08:09;1.30;;;0.80;;
19030;SDS011;9648;51.130;13.978;2023-07-29T12:10:37;1.70;;;0.70;;
19030;SDS011;9648;51.130;13.978;2023-07-29T12:13:04;1.20;;;0.70;;
19030;SDS011;9648;51.130;13.978;2023-07-29T12:15:31;0.90;;;0.80;;
19030;SDS011;9648;51.130;13.978;2023-07-29T12:17:58;1.10;;;0.80;;
19030;SDS011;9648;51.130;13.978;2023-07-29T12:20:25;1.95;;;0.80;;
19030;SDS011;9648;51.130;13.978;2023-07-29T12:22:53;1.05;;;0.70;;
19030;SDS011;9648;51.130;13.978;2023-07-29T12:25:27;1.02;;;0.70;;
19030;SDS011;9648;51.130;13.978;2023-07-29T12:27:54;2.40;;;0.77;;
19030;SDS011;9648;51.130;13.978;2023-07-29T12:30:21;1.23;;;0.70;;
19030;SDS011;9648;51.130;13.978;2023-07-29T12:32:49;2.00;;;0.70;;
19030;SDS011;9648;51.130;13.978;2023-07-29T12:35:16;1.60;;;0.80;;
19030;SDS011;9648;51.130;13.978;2023-07-29T12:37:43;1.20;;;0.80;;
19030;SDS011;9648;51.130;13.978;2023-07-29T12:40:22;2.28;;;0.70;;
19030;SDS011;9648;51.130;13.978;2023-07-29T12:42:51;1.10;;;0.70;;
19030;SDS011;9648;51.130;13.978;2023-07-29T12:45:19;1.33;;;0.82;;
19030;SDS011;9648;51.130;13.978;2023-07-29T12:47:48;1.20;;;0.73;;
19030;SDS011;9648;51.130;13.978;2023-07-29T12:50:14;2.33;;;0.70;;
19030;SDS011;9648;51.130;13.978;2023-07-29T12:52:41;1.47;;;0.80;;
19030;SDS011;9648;51.130;13.978;2023-07-29T12:55:08;2.00;;;0.70;;
19030;SDS011;9648;51.130;13.978;2023-07-29T12:57:38;2.40;;;0.80;;
19030;SDS011;9648;51.130;13.978;2023-07-29T13:00:08;0.90;;;0.80;;
19030;SDS011;9648;51.130;13.978;2023-07-29T13:02:35;1.20;;;0.80;;
19030;SDS011;9648;51.130;13.978;2023-07-29T13:05:02;1.33;;;0.80;;
19030;SDS011;9648;51.130;13.978;2023-07-29T13:07:30;1.25;;;0.82;;
19030;SDS011;9648;51.130;13.978;2023-07-29T13:09:56;1.95;;;0.70;;
19030;SDS011;9648;51.130;13.978;2023-07-29T13:12:23;1.45;;;0.80;;
19030;SDS011;9648;51.130;13.978;2023-07-29T13:14:50;3.03;;;0.90;;
19030;SDS011;9648;51.130;13.978;2023-07-29T13:17:18;1.47;;;0.90;;
19030;SDS011;9648;51.130;13.978;2023-07-29T13:19:45;1.23;;;0.65;;
19030;SDS011;9648;51.130;13.978;2023-07-29T13:22:12;1.60;;;0.70;;
19030;SDS011;9648;51.130;13.978;2023-07-29T13:24:39;0.75;;;0.70;;
19030;SDS011;9648;51.130;13.978;2023-07-29T13:27:06;1.50;;;0.82;;
19030;SDS011;9648;51.130;13.978;2023-07-29T13:29:33;1.20;;;0.87;;
19030;SDS011;9648;51.130;13.978;2023-07-29T13:31:59;1.20;;;0.70;;
19030;SDS011;9648;51.130;13.978;2023-07-29T13:34:27;1.17;;;0.80;;
19030;SDS011;9648;51.130;13.978;2023-07-29T13:36:54;0.90;;;0.70;;
19030;SDS011;9648;51.130;13.978;2023-07-29T13:39:23;0.80;;;0.60;;
19030;SDS011;9648;51.130;13.978;2023-07-29T13:41:49;1.10;;;0.70;;
19030;SDS011;9648;51.130;13.978;2023-07-29T13:44:16;0.88;;;0.70;;
19030;SDS011;9648;51.130;13.978;2023-07-29T13:46:43;1.88;;;0.80;;
19030;SDS011;9648;51.130;13.978;2023-07-29T13:49:09;1.15;;;0.73;;
19030;SDS011;9648;51.130;13.978;2023-07-29T13:51:38;1.00;;;0.70;;
19030;SDS011;9648;51.130;13.978;2023-07-29T13:54:05;2.10;;;0.88;;
19030;SDS011;9648;51.130;13.978;2023-07-29T13:56:31;2.03;;;0.75;;
19030;SDS011;9648;51.130;13.978;2023-07-29T13:58:58;1.10;;;0.70;;
19030;SDS011;9648;51.130;13.978;2023-07-29T14:01:25;1.50;;;0.77;;
19030;SDS011;9648;51.130;13.978;2023-07-29T14:03:51;1.25;;;0.90;;
19030;SDS011;9648;51.130;13.978;2023-07-29T14:06:18;1.17;;;0.80;;
19030;SDS011;9648;51.130;13.978;2023-07-29T14:08:46;2.17;;;0.90;;
19030;SDS011;9648;51.130;13.978;2023-07-29T14:11:13;2.42;;;0.90;;
19030;SDS011;9648;51.130;13.978;2023-07-29T14:13:40;0.77;;;0.68;;
19030;SDS011;9648;51.130;13.978;2023-07-29T14:16:07;0.77;;;0.60;;
19030;SDS011;9648;51.130;13.978;2023-07-29T14:18:33;1.60;;;0.67;;
19030;SDS011;9648;51.130;13.978;2023-07-29T14:21:00;1.80;;;0.80;;
19030;SDS011;9648;51.130;13.978;2023-07-29T14:23:27;1.10;;;0.88;;
19030;SDS011;9648;51.130;13.978;2023-07-29T14:26:03;1.95;;;1.00;;
19030;SDS011;9648;51.130;13.978;2023-07-29T14:28:30;1.27;;;0.88;;
19030;SDS011;9648;51.130;13.978;2023-07-29T14:30:57;1.58;;;0.80;;
19030;SDS011;9648;51.130;13.978;2023-07-29T14:33:24;1.13;;;0.70;;
19030;SDS011;9648;51.130;13.978;2023-07-29T14:35:51;1.77;;;0.70;;
19030;SDS011;9648;51.130;13.978;2023-07-29T14:38:18;1.30;;;0.80;;
19030;SDS011;9648;51.130;13.978;2023-07-29T14:40:47;1.95;;;0.85;;
19030;SDS011;9648;51.130;13.978;2023-07-29T14:43:17;1.50;;;0.80;;
19030;SDS011;9648;51.130;13.978;2023-07-29T14:45:43;1.30;;;0.70;;
19030;SDS011;9648;51.130;13.978;2023-07-29T14:48:10;2.33;;;1.20;;
19030;SDS011;9648;51.130;13.978;2023-07-29T14:50:37;2.10;;;0.90;;
19030;SDS011;9648;51.130;13.978;2023-07-29T14:53:04;1.05;;;0.70;;